sensor_id;sensor_type;location;lat;lon;timestamp;temperature;humidity
23556;DHT22;11956;53.184;8.578;2023-04-06T00:01:07;1.80;99.90
23556;DHT22;11956;53.184;8.578;2023-04-06T00:04:08;1.80;99.90
23556;DHT22;11956;53.184;8.578;2023-04-06T00:07:09;1.80;99.90
23556;DHT22;11956;53.184;8.578;2023-04-06T00:10:11;1.70;99.90
23556;DHT22;11956;53.184;8.578;2023-04-06T00:13:12;1.70;99.90
23556;DHT22;11956;53.184;8.578;2023-04-06T00:16:13;1.70;99.90
23556;DHT22;11956;53.184;8.578;2023-04-06T00:19:13;1.60;99.90
23556;DHT22;11956;53.184;8.578;2023-04-06T00:22:14;1.50;99.90
23556;DHT22;11956;53.184;8.578;2023-04-06T00:25:15;1.50;99.90
23556;DHT22;11956;53.184;8.578;2023-04-06T00:28:16;1.50;99.90
23556;DHT22;11956;53.184;8.578;2023-04-06T00:31:17;1.50;99.90
23556;DHT22;11956;53.184;8.578;2023-04-06T00:34:18;1.40;99.90
23556;DHT22;11956;53.184;8.578;2023-04-06T00:37:20;1.40;99.90
23556;DHT22;11956;53.184;8.578;2023-04-06T00:40:21;1.40;99.90
23556;DHT22;11956;53.184;8.578;2023-04-06T00:43:22;1.40;99.90
23556;DHT22;11956;53.184;8.578;2023-04-06T00:46:24;1.40;99.90
23556;DHT22;11956;53.184;8.578;2023-04-06T00:49:26;1.40;99.90
23556;DHT22;11956;53.184;8.578;2023-04-06T00:52:27;1.30;99.90
23556;DHT22;11956;53.184;8.578;2023-04-06T00:55:28;1.30;99.90
23556;DHT22;11956;53.184;8.578;2023-04-06T00:58:31;1.30;99.90
23556;DHT22;11956;53.184;8.578;2023-04-06T01:01:39;1.30;99.90
23556;DHT22;11956;53.184;8.578;2023-04-06T01:04:56;1.30;99.90
23556;DHT22;11956;53.184;8.578;2023-04-06T01:08:11;1.20;99.90
23556;DHT22;11956;53.184;8.578;2023-04-06T01:11:12;1.20;99.90
23556;DHT22;11956;53.184;8.578;2023-04-06T01:14:13;1.20;99.90
23556;DHT22;11956;53.184;8.578;2023-04-06T01:17:26;1.30;99.90
23556;DHT22;11956;53.184;8.578;2023-04-06T01:20:31;1.40;99.90
23556;DHT22;11956;53.184;8.578;2023-04-06T01:23:35;1.40;99.90
23556;DHT22;11956;53.184;8.578;2023-04-06T01:26:38;1.40;99.90
23556;DHT22;11956;53.184;8.578;2023-04-06T01:29:42;1.50;99.90
23556;DHT22;11956;53.184;8.578;2023-04-06T01:32:46;1.40;99.90
23556;DHT22;11956;53.184;8.578;2023-04-06T01:35:50;1.30;99.90
23556;DHT22;11956;53.184;8.578;2023-04-06T01:38:54;1.30;99.90
23556;DHT22;11956;53.184;8.578;2023-04-06T01:42:03;1.30;99.90
23556;DHT22;11956;53.184;8.578;2023-04-06T01:45:07;1.30;99.90
23556;DHT22;11956;53.184;8.578;2023-04-06T01:48:08;1.30;99.90
23556;DHT22;11956;53.184;8.578;2023-04-06T01:51:09;1.20;99.90
23556;DHT22;11956;53.184;8.578;2023-04-06T01:54:19;1.20;99.90
23556;DHT22;11956;53.184;8.578;2023-04-06T01:57:43;1.20;99.90
23556;DHT22;11956;53.184;8.578;2023-04-06T02:00:51;1.10;99.90
23556;DHT22;11956;53.184;8.578;2023-04-06T02:03:54;1.10;99.90
23556;DHT22;11956;53.184;8.578;2023-04-06T02:06:55;1.00;99.90
23556;DHT22;11956;53.184;8.578;2023-04-06T02:09:59;0.90;99.90
23556;DHT22;11956;53.184;8.578;2023-04-06T02:13:09;0.90;99.90
23556;DHT22;11956;53.184;8.578;2023-04-06T02:16:10;0.80;99.90
23556;DHT22;11956;53.184;8.578;2023-04-06T02:19:11;0.80;99.90
23556;DHT22;11956;53.184;8.578;2023-04-06T02:22:12;0.80;99.90
23556;DHT22;11956;53.184;8.578;2023-04-06T02:25:13;0.80;99.90
23556;DHT22;11956;53.184;8.578;2023-04-06T02:28:14;0.70;99.90
23556;DHT22;11956;53.184;8.578;2023-04-06T02:31:15;0.70;99.90
23556;DHT22;11956;53.184;8.578;2023-04-06T02:34:18;0.70;99.90
23556;DHT22;11956;53.184;8.578;2023-04-06T02:37:23;0.60;99.90
23556;DHT22;11956;53.184;8.578;2023-04-06T02:40:24;0.60;99.90
23556;DHT22;11956;53.184;8.578;2023-04-06T02:43:27;0.60;99.90
23556;DHT22;11956;53.184;8.578;2023-04-06T02:46:36;0.60;99.90
23556;DHT22;11956;53.184;8.578;2023-04-06T02:49:38;0.60;99.90
23556;DHT22;11956;53.184;8.578;2023-04-06T02:52:39;0.60;99.90
23556;DHT22;11956;53.184;8.578;2023-04-06T02:55:41;0.50;99.90
23556;DHT22;11956;53.184;8.578;2023-04-06T02:58:42;0.50;99.90
23556;DHT22;11956;53.184;8.578;2023-04-06T03:01:43;0.50;99.90
23556;DHT22;11956;53.184;8.578;2023-04-06T03:04:44;0.50;99.90
23556;DHT22;11956;53.184;8.578;2023-04-06T03:07:55;0.60;99.90
23556;DHT22;11956;53.184;8.578;2023-04-06T03:11:06;0.70;99.90
23556;DHT22;11956;53.184;8.578;2023-04-06T03:14:12;0.70;99.90
23556;DHT22;11956;53.184;8.578;2023-04-06T03:17:13;0.70;99.90
23556;DHT22;11956;53.184;8.578;2023-04-06T03:20:15;0.70;99.90
23556;DHT22;11956;53.184;8.578;2023-04-06T03:23:16;0.70;99.90
23556;DHT22;11956;53.184;8.578;2023-04-06T03:26:19;0.60;99.90
23556;DHT22;11956;53.184;8.578;2023-04-06T03:29:20;0.50;99.90
23556;DHT22;11956;53.184;8.578;2023-04-06T03:32:21;0.50;99.90
23556;DHT22;11956;53.184;8.578;2023-04-06T03:35:22;0.60;99.90
23556;DHT22;11956;53.184;8.578;2023-04-06T03:38:24;0.50;99.90
23556;DHT22;11956;53.184;8.578;2023-04-06T03:41:25;0.50;99.90
23556;DHT22;11956;53.184;8.578;2023-04-06T03:44:42;0.40;99.90
23556;DHT22;11956;53.184;8.578;2023-04-06T03:47:43;0.40;99.90
23556;DHT22;11956;53.184;8.578;2023-04-06T03:50:44;0.40;99.90
23556;DHT22;11956;53.184;8.578;2023-04-06T03:53:45;0.30;99.90
23556;DHT22;11956;53.184;8.578;2023-04-06T03:56:46;0.30;99.90
23556;DHT22;11956;53.184;8.578;2023-04-06T03:59:47;0.30;99.90
23556;DHT22;11956;53.184;8.578;2023-04-06T04:02:48;0.20;99.90
23556;DHT22;11956;53.184;8.578;2023-04-06T04:05:49;0.20;99.90
23556;DHT22;11956;53.184;8.578;2023-04-06T04:08:52;0.20;99.90
23556;DHT22;11956;53.184;8.578;2023-04-06T04:11:53;0.20;99.90
23556;DHT22;11956;53.184;8.578;2023-04-06T04:14:55;0.10;99.90
23556;DHT22;11956;53.184;8.578;2023-04-06T04:17:56;0.10;99.90
23556;DHT22;11956;53.184;8.578;2023-04-06T04:20:57;0.10;99.90
23556;DHT22;11956;53.184;8.578;2023-04-06T04:23:59;0.10;99.90
23556;DHT22;11956;53.184;8.578;2023-04-06T04:27:00;0.20;99.90
23556;DHT22;11956;53.184;8.578;2023-04-06T04:30:07;0.10;99.90
23556;DHT22;11956;53.184;8.578;2023-04-06T04:33:08;0.10;99.90
23556;DHT22;11956;53.184;8.578;2023-04-06T04:36:09;0.20;99.90
23556;DHT22;11956;53.184;8.578;2023-04-06T04:39:15;0.20;99.90
23556;DHT22;11956;53.184;8.578;2023-04-06T04:42:21;0.20;99.90
23556;DHT22;11956;53.184;8.578;2023-04-06T04:45:25;0.20;99.90
23556;DHT22;11956;53.184;8.578;2023-04-06T04:48:27;0.20;99.90
23556;DHT22;11956;53.184;8.578;2023-04-06T04:51:35;0.20;99.90
23556;DHT22;11956;53.184;8.578;2023-04-06T04:54:48;0.30;99.90
23556;DHT22;11956;53.184;8.578;2023-04-06T04:57:57;0.50;99.90
23556;DHT22;11956;53.184;8.578;2023-04-06T05:01:11;0.60;99.90
23556;DHT22;11956;53.184;8.578;2023-04-06T05:04:14;0.70;99.90
23556;DHT22;11956;53.184;8.578;2023-04-06T05:07:15;0.80;99.90
23556;DHT22;11956;53.184;8.578;2023-04-06T05:10:19;0.90;99.90
23556;DHT22;11956;53.184;8.578;2023-04-06T05:13:30;1.00;99.90
23556;DHT22;11956;53.184;8.578;2023-04-06T05:16:34;1.10;99.90
23556;DHT22;11956;53.184;8.578;2023-04-06T05:19:36;1.30;99.90
23556;DHT22;11956;53.184;8.578;2023-04-06T05:22:37;1.40;99.90
23556;DHT22;11956;53.184;8.578;2023-04-06T05:25:42;1.50;99.90
23556;DHT22;11956;53.184;8.578;2023-04-06T05:28:53;1.70;99.90
23556;DHT22;11956;53.184;8.578;2023-04-06T05:31:56;1.90;99.90
23556;DHT22;11956;53.184;8.578;2023-04-06T05:34:58;2.00;99.90
23556;DHT22;11956;53.184;8.578;2023-04-06T05:37:59;2.30;99.90
23556;DHT22;11956;53.184;8.578;2023-04-06T05:41:01;2.80;99.90
23556;DHT22;11956;53.184;8.578;2023-04-06T05:44:07;3.80;99.90
23556;DHT22;11956;53.184;8.578;2023-04-06T05:47:08;4.90;99.90
23556;DHT22;11956;53.184;8.578;2023-04-06T05:50:14;5.90;99.90
23556;DHT22;11956;53.184;8.578;2023-04-06T05:53:16;7.10;99.90
23556;DHT22;11956;53.184;8.578;2023-04-06T05:56:26;8.10;99.90
23556;DHT22;11956;53.184;8.578;2023-04-06T05:59:29;9.00;99.90
23556;DHT22;11956;53.184;8.578;2023-04-06T06:02:31;9.50;99.90
23556;DHT22;11956;53.184;8.578;2023-04-06T06:05:32;10.10;99.90
23556;DHT22;11956;53.184;8.578;2023-04-06T06:08:39;10.60;99.30
23556;DHT22;11956;53.184;8.578;2023-04-06T06:11:47;10.20;96.90
23556;DHT22;11956;53.184;8.578;2023-04-06T06:14:51;10.20;97.20
23556;DHT22;11956;53.184;8.578;2023-04-06T06:17:54;9.80;96.80
23556;DHT22;11956;53.184;8.578;2023-04-06T06:20:55;9.50;96.10
23556;DHT22;11956;53.184;8.578;2023-04-06T06:23:56;9.70;96.90
23556;DHT22;11956;53.184;8.578;2023-04-06T06:26:58;10.70;96.30
23556;DHT22;11956;53.184;8.578;2023-04-06T06:30:02;12.20;93.50
23556;DHT22;11956;53.184;8.578;2023-04-06T06:33:05;13.40;90.50
23556;DHT22;11956;53.184;8.578;2023-04-06T06:36:07;14.20;85.00
23556;DHT22;11956;53.184;8.578;2023-04-06T06:39:08;14.90;80.40
23556;DHT22;11956;53.184;8.578;2023-04-06T06:42:09;14.90;79.10
23556;DHT22;11956;53.184;8.578;2023-04-06T06:45:35;13.20;79.90
23556;DHT22;11956;53.184;8.578;2023-04-06T06:48:36;13.20;81.10
23556;DHT22;11956;53.184;8.578;2023-04-06T06:51:36;14.20;78.50
23556;DHT22;11956;53.184;8.578;2023-04-06T06:54:37;14.10;76.00
23556;DHT22;11956;53.184;8.578;2023-04-06T06:57:38;13.90;77.80
23556;DHT22;11956;53.184;8.578;2023-04-06T07:00:41;14.30;76.10
23556;DHT22;11956;53.184;8.578;2023-04-06T07:03:42;14.40;74.80
23556;DHT22;11956;53.184;8.578;2023-04-06T07:06:43;15.30;73.00
23556;DHT22;11956;53.184;8.578;2023-04-06T07:09:44;14.20;73.00
23556;DHT22;11956;53.184;8.578;2023-04-06T07:12:45;13.10;78.10
23556;DHT22;11956;53.184;8.578;2023-04-06T07:15:46;13.10;79.20
23556;DHT22;11956;53.184;8.578;2023-04-06T07:18:47;13.60;79.60
23556;DHT22;11956;53.184;8.578;2023-04-06T07:21:49;14.10;75.20
23556;DHT22;11956;53.184;8.578;2023-04-06T07:24:50;14.60;75.40
23556;DHT22;11956;53.184;8.578;2023-04-06T07:27:51;14.70;72.30
23556;DHT22;11956;53.184;8.578;2023-04-06T07:30:53;12.50;77.50
23556;DHT22;11956;53.184;8.578;2023-04-06T07:33:55;12.80;77.80
23556;DHT22;11956;53.184;8.578;2023-04-06T07:36:57;13.10;78.70
23556;DHT22;11956;53.184;8.578;2023-04-06T07:40:00;11.90;80.20
23556;DHT22;11956;53.184;8.578;2023-04-06T07:43:03;11.40;82.60
23556;DHT22;11956;53.184;8.578;2023-04-06T07:46:04;11.60;83.70
23556;DHT22;11956;53.184;8.578;2023-04-06T07:49:05;12.00;83.30
23556;DHT22;11956;53.184;8.578;2023-04-06T07:52:08;12.20;82.50
23556;DHT22;11956;53.184;8.578;2023-04-06T07:55:09;12.50;81.20
23556;DHT22;11956;53.184;8.578;2023-04-06T07:58:10;11.70;83.60
23556;DHT22;11956;53.184;8.578;2023-04-06T08:01:11;12.20;82.20
23556;DHT22;11956;53.184;8.578;2023-04-06T08:04:12;13.30;77.70
23556;DHT22;11956;53.184;8.578;2023-04-06T08:07:13;14.20;76.70
23556;DHT22;11956;53.184;8.578;2023-04-06T08:10:14;13.10;77.20
23556;DHT22;11956;53.184;8.578;2023-04-06T08:13:15;13.10;78.30
23556;DHT22;11956;53.184;8.578;2023-04-06T08:16:16;14.30;76.20
23556;DHT22;11956;53.184;8.578;2023-04-06T08:19:17;16.10;72.60
23556;DHT22;11956;53.184;8.578;2023-04-06T08:22:19;17.30;64.30
23556;DHT22;11956;53.184;8.578;2023-04-06T08:25:20;16.70;63.20
23556;DHT22;11956;53.184;8.578;2023-04-06T08:28:21;16.20;63.80
23556;DHT22;11956;53.184;8.578;2023-04-06T08:31:22;16.40;64.60
23556;DHT22;11956;53.184;8.578;2023-04-06T08:34:23;15.80;63.80
23556;DHT22;11956;53.184;8.578;2023-04-06T08:37:24;16.70;63.70
23556;DHT22;11956;53.184;8.578;2023-04-06T08:40:26;16.60;64.00
23556;DHT22;11956;53.184;8.578;2023-04-06T08:43:28;16.50;63.90
23556;DHT22;11956;53.184;8.578;2023-04-06T08:46:30;17.00;61.80
23556;DHT22;11956;53.184;8.578;2023-04-06T08:49:32;17.70;60.00
23556;DHT22;11956;53.184;8.578;2023-04-06T08:52:33;16.80;61.50
23556;DHT22;11956;53.184;8.578;2023-04-06T08:55:35;17.10;62.00
23556;DHT22;11956;53.184;8.578;2023-04-06T08:58:39;17.70;61.20
23556;DHT22;11956;53.184;8.578;2023-04-06T09:01:41;18.40;59.40
23556;DHT22;11956;53.184;8.578;2023-04-06T09:04:47;19.30;57.20
23556;DHT22;11956;53.184;8.578;2023-04-06T09:07:49;18.20;58.00
23556;DHT22;11956;53.184;8.578;2023-04-06T09:10:51;18.70;57.10
23556;DHT22;11956;53.184;8.578;2023-04-06T09:13:55;17.90;57.00
23556;DHT22;11956;53.184;8.578;2023-04-06T09:16:57;18.70;57.90
23556;DHT22;11956;53.184;8.578;2023-04-06T09:20:00;19.40;55.80
23556;DHT22;11956;53.184;8.578;2023-04-06T09:23:01;18.80;54.80
23556;DHT22;11956;53.184;8.578;2023-04-06T09:26:14;18.00;57.40
23556;DHT22;11956;53.184;8.578;2023-04-06T09:29:26;18.40;56.80
23556;DHT22;11956;53.184;8.578;2023-04-06T09:32:27;17.60;57.40
23556;DHT22;11956;53.184;8.578;2023-04-06T09:35:28;18.30;57.10
23556;DHT22;11956;53.184;8.578;2023-04-06T09:38:31;16.30;60.10
23556;DHT22;11956;53.184;8.578;2023-04-06T09:41:34;16.20;60.60
23556;DHT22;11956;53.184;8.578;2023-04-06T09:44:36;17.50;59.10
23556;DHT22;11956;53.184;8.578;2023-04-06T09:47:37;17.00;60.50
23556;DHT22;11956;53.184;8.578;2023-04-06T09:50:40;15.10;63.40
23556;DHT22;11956;53.184;8.578;2023-04-06T09:53:44;15.20;65.20
23556;DHT22;11956;53.184;8.578;2023-04-06T10:00:22;16.60;62.40
23556;DHT22;11956;53.184;8.578;2023-04-06T10:06:39;16.50;61.50
23556;DHT22;11956;53.184;8.578;2023-04-06T10:09:44;15.20;62.80
23556;DHT22;11956;53.184;8.578;2023-04-06T10:12:47;14.90;65.80
23556;DHT22;11956;53.184;8.578;2023-04-06T10:15:49;14.60;67.30
23556;DHT22;11956;53.184;8.578;2023-04-06T10:18:54;15.70;66.60
23556;DHT22;11956;53.184;8.578;2023-04-06T10:21:58;16.80;61.70
23556;DHT22;11956;53.184;8.578;2023-04-06T10:24:59;17.10;62.00
23556;DHT22;11956;53.184;8.578;2023-04-06T10:28:11;16.90;62.80
23556;DHT22;11956;53.184;8.578;2023-04-06T10:31:12;17.00;61.80
23556;DHT22;11956;53.184;8.578;2023-04-06T10:34:13;16.40;62.60
23556;DHT22;11956;53.184;8.578;2023-04-06T10:37:16;17.10;62.50
23556;DHT22;11956;53.184;8.578;2023-04-06T10:40:24;17.20;62.60
23556;DHT22;11956;53.184;8.578;2023-04-06T10:43:25;17.10;61.50
23556;DHT22;11956;53.184;8.578;2023-04-06T10:46:31;17.20;62.30
23556;DHT22;11956;53.184;8.578;2023-04-06T10:49:33;17.20;61.80
23556;DHT22;11956;53.184;8.578;2023-04-06T10:52:34;15.10;65.20
23556;DHT22;11956;53.184;8.578;2023-04-06T10:55:38;13.40;70.80
23556;DHT22;11956;53.184;8.578;2023-04-06T10:58:45;13.00;72.60
23556;DHT22;11956;53.184;8.578;2023-04-06T11:01:49;12.90;74.70
23556;DHT22;11956;53.184;8.578;2023-04-06T11:04:57;12.70;75.40
23556;DHT22;11956;53.184;8.578;2023-04-06T11:07:58;12.50;77.60
23556;DHT22;11956;53.184;8.578;2023-04-06T11:11:13;12.50;77.40
23556;DHT22;11956;53.184;8.578;2023-04-06T11:14:18;12.40;78.00
23556;DHT22;11956;53.184;8.578;2023-04-06T11:17:26;12.20;74.10
23556;DHT22;11956;53.184;8.578;2023-04-06T11:20:28;12.30;76.60
23556;DHT22;11956;53.184;8.578;2023-04-06T11:23:29;12.40;75.20
23556;DHT22;11956;53.184;8.578;2023-04-06T11:26:30;12.40;74.10
23556;DHT22;11956;53.184;8.578;2023-04-06T11:29:31;12.60;74.40
23556;DHT22;11956;53.184;8.578;2023-04-06T11:32:40;12.30;75.00
23556;DHT22;11956;53.184;8.578;2023-04-06T11:35:45;12.10;75.50
23556;DHT22;11956;53.184;8.578;2023-04-06T11:38:46;12.40;77.40
23556;DHT22;11956;53.184;8.578;2023-04-06T11:41:51;12.40;76.10
23556;DHT22;11956;53.184;8.578;2023-04-06T11:44:55;12.60;74.70
23556;DHT22;11956;53.184;8.578;2023-04-06T11:47:59;12.70;75.70
23556;DHT22;11956;53.184;8.578;2023-04-06T11:51:01;12.60;76.20
23556;DHT22;11956;53.184;8.578;2023-04-06T11:54:04;12.70;75.80
23556;DHT22;11956;53.184;8.578;2023-04-06T11:57:05;12.80;76.40
23556;DHT22;11956;53.184;8.578;2023-04-06T12:00:07;12.90;76.10
23556;DHT22;11956;53.184;8.578;2023-04-06T12:03:10;13.10;75.60
23556;DHT22;11956;53.184;8.578;2023-04-06T12:06:12;12.90;74.80
23556;DHT22;11956;53.184;8.578;2023-04-06T12:09:13;12.80;72.90
23556;DHT22;11956;53.184;8.578;2023-04-06T12:12:14;12.70;73.80
23556;DHT22;11956;53.184;8.578;2023-04-06T12:15:15;12.90;74.00
23556;DHT22;11956;53.184;8.578;2023-04-06T12:18:16;13.00;72.80
23556;DHT22;11956;53.184;8.578;2023-04-06T12:21:17;12.80;72.90
23556;DHT22;11956;53.184;8.578;2023-04-06T12:24:18;13.10;72.10
23556;DHT22;11956;53.184;8.578;2023-04-06T12:27:20;13.10;71.50
23556;DHT22;11956;53.184;8.578;2023-04-06T12:30:21;13.20;73.70
23556;DHT22;11956;53.184;8.578;2023-04-06T12:33:22;13.50;72.80
23556;DHT22;11956;53.184;8.578;2023-04-06T12:36:23;13.10;71.50
23556;DHT22;11956;53.184;8.578;2023-04-06T12:39:24;13.30;71.70
23556;DHT22;11956;53.184;8.578;2023-04-06T12:42:26;13.50;67.40
23556;DHT22;11956;53.184;8.578;2023-04-06T12:45:27;13.40;66.60
23556;DHT22;11956;53.184;8.578;2023-04-06T12:48:27;13.40;67.90
23556;DHT22;11956;53.184;8.578;2023-04-06T12:51:29;13.60;67.70
23556;DHT22;11956;53.184;8.578;2023-04-06T12:54:30;13.60;66.50
23556;DHT22;11956;53.184;8.578;2023-04-06T12:57:31;13.50;66.30
23556;DHT22;11956;53.184;8.578;2023-04-06T13:00:32;13.40;62.90
23556;DHT22;11956;53.184;8.578;2023-04-06T13:03:33;13.40;63.20
23556;DHT22;11956;53.184;8.578;2023-04-06T13:06:34;13.40;63.80
23556;DHT22;11956;53.184;8.578;2023-04-06T13:09:35;13.40;63.60
23556;DHT22;11956;53.184;8.578;2023-04-06T13:12:36;13.50;62.70
23556;DHT22;11956;53.184;8.578;2023-04-06T13:15:37;13.70;64.50
23556;DHT22;11956;53.184;8.578;2023-04-06T13:18:38;13.70;64.90
23556;DHT22;11956;53.184;8.578;2023-04-06T13:21:39;13.50;65.20
23556;DHT22;11956;53.184;8.578;2023-04-06T13:24:40;13.70;65.90
23556;DHT22;11956;53.184;8.578;2023-04-06T13:27:41;13.70;64.80
23556;DHT22;11956;53.184;8.578;2023-04-06T13:30:48;13.80;63.80
23556;DHT22;11956;53.184;8.578;2023-04-06T13:33:49;13.70;63.10
23556;DHT22;11956;53.184;8.578;2023-04-06T13:36:50;13.70;65.20
23556;DHT22;11956;53.184;8.578;2023-04-06T13:39:51;13.80;65.10
23556;DHT22;11956;53.184;8.578;2023-04-06T13:42:52;13.90;63.90
23556;DHT22;11956;53.184;8.578;2023-04-06T13:45:54;13.80;64.50
23556;DHT22;11956;53.184;8.578;2023-04-06T13:48:56;13.80;64.60
23556;DHT22;11956;53.184;8.578;2023-04-06T13:51:57;13.50;65.80
23556;DHT22;11956;53.184;8.578;2023-04-06T13:54:58;13.70;67.60
23556;DHT22;11956;53.184;8.578;2023-04-06T13:57:59;13.80;65.70
23556;DHT22;11956;53.184;8.578;2023-04-06T14:01:04;13.70;64.40
23556;DHT22;11956;53.184;8.578;2023-04-06T14:04:06;13.60;65.00
23556;DHT22;11956;53.184;8.578;2023-04-06T14:07:07;13.80;66.20
23556;DHT22;11956;53.184;8.578;2023-04-06T14:10:09;13.70;66.00
23556;DHT22;11956;53.184;8.578;2023-04-06T14:13:14;13.60;65.80
23556;DHT22;11956;53.184;8.578;2023-04-06T14:16:16;13.40;65.80
23556;DHT22;11956;53.184;8.578;2023-04-06T14:19:20;13.40;66.50
23556;DHT22;11956;53.184;8.578;2023-04-06T14:22:23;13.50;66.70
23556;DHT22;11956;53.184;8.578;2023-04-06T14:25:24;13.50;66.80
23556;DHT22;11956;53.184;8.578;2023-04-06T14:28:25;13.30;66.10
23556;DHT22;11956;53.184;8.578;2023-04-06T14:31:28;13.40;66.40
23556;DHT22;11956;53.184;8.578;2023-04-06T14:34:38;13.40;67.50
23556;DHT22;11956;53.184;8.578;2023-04-06T14:37:39;13.40;67.20
23556;DHT22;11956;53.184;8.578;2023-04-06T14:40:40;13.30;67.30
23556;DHT22;11956;53.184;8.578;2023-04-06T14:43:41;13.30;67.70
23556;DHT22;11956;53.184;8.578;2023-04-06T14:46:42;13.30;67.00
23556;DHT22;11956;53.184;8.578;2023-04-06T14:49:43;13.30;66.20
23556;DHT22;11956;53.184;8.578;2023-04-06T14:52:55;13.30;66.50
23556;DHT22;11956;53.184;8.578;2023-04-06T14:56:22;13.20;66.10
23556;DHT22;11956;53.184;8.578;2023-04-06T14:59:24;13.40;67.40
23556;DHT22;11956;53.184;8.578;2023-04-06T15:02:25;13.50;66.90
23556;DHT22;11956;53.184;8.578;2023-04-06T15:05:26;13.60;65.60
23556;DHT22;11956;53.184;8.578;2023-04-06T15:08:26;13.70;66.20
23556;DHT22;11956;53.184;8.578;2023-04-06T15:11:27;13.60;65.30
23556;DHT22;11956;53.184;8.578;2023-04-06T15:14:28;13.60;64.70
23556;DHT22;11956;53.184;8.578;2023-04-06T15:17:29;13.80;65.80
23556;DHT22;11956;53.184;8.578;2023-04-06T15:20:30;13.70;64.10
23556;DHT22;11956;53.184;8.578;2023-04-06T15:23:31;13.70;64.60
23556;DHT22;11956;53.184;8.578;2023-04-06T15:26:36;13.70;63.50
23556;DHT22;11956;53.184;8.578;2023-04-06T15:29:59;13.60;64.50
23556;DHT22;11956;53.184;8.578;2023-04-06T15:34:15;13.70;65.60
23556;DHT22;11956;53.184;8.578;2023-04-06T15:37:18;13.70;66.80
23556;DHT22;11956;53.184;8.578;2023-04-06T15:40:19;13.60;66.70
23556;DHT22;11956;53.184;8.578;2023-04-06T15:43:42;13.40;67.00
23556;DHT22;11956;53.184;8.578;2023-04-06T15:47:27;13.40;67.60
23556;DHT22;11956;53.184;8.578;2023-04-06T15:50:29;13.50;67.60
23556;DHT22;11956;53.184;8.578;2023-04-06T15:53:44;13.40;68.50
23556;DHT22;11956;53.184;8.578;2023-04-06T15:56:45;13.40;67.60
23556;DHT22;11956;53.184;8.578;2023-04-06T15:59:46;13.40;67.60
23556;DHT22;11956;53.184;8.578;2023-04-06T16:02:49;13.40;68.10
23556;DHT22;11956;53.184;8.578;2023-04-06T16:06:16;13.40;69.10
23556;DHT22;11956;53.184;8.578;2023-04-06T16:09:17;13.30;69.70
23556;DHT22;11956;53.184;8.578;2023-04-06T16:12:19;13.30;70.20
23556;DHT22;11956;53.184;8.578;2023-04-06T16:15:20;13.10;70.80
23556;DHT22;11956;53.184;8.578;2023-04-06T16:18:21;13.10;71.20
23556;DHT22;11956;53.184;8.578;2023-04-06T16:21:22;13.10;71.40
23556;DHT22;11956;53.184;8.578;2023-04-06T16:24:23;13.10;71.10
23556;DHT22;11956;53.184;8.578;2023-04-06T16:27:24;13.20;71.10
23556;DHT22;11956;53.184;8.578;2023-04-06T16:30:29;13.20;70.50
23556;DHT22;11956;53.184;8.578;2023-04-06T16:34:09;13.10;70.00
23556;DHT22;11956;53.184;8.578;2023-04-06T16:37:10;13.20;70.30
23556;DHT22;11956;53.184;8.578;2023-04-06T16:40:11;13.20;71.10
23556;DHT22;11956;53.184;8.578;2023-04-06T16:43:36;13.10;71.20
23556;DHT22;11956;53.184;8.578;2023-04-06T16:47:24;13.10;71.70
23556;DHT22;11956;53.184;8.578;2023-04-06T16:50:25;13.00;72.10
23556;DHT22;11956;53.184;8.578;2023-04-06T16:53:26;12.90;72.50
23556;DHT22;11956;53.184;8.578;2023-04-06T17:00:50;12.90;73.40
23556;DHT22;11956;53.184;8.578;2023-04-06T17:04:06;12.90;74.30
23556;DHT22;11956;53.184;8.578;2023-04-06T17:07:07;12.80;73.80
23556;DHT22;11956;53.184;8.578;2023-04-06T17:10:09;12.80;74.20
23556;DHT22;11956;53.184;8.578;2023-04-06T17:13:10;12.80;74.30
23556;DHT22;11956;53.184;8.578;2023-04-06T17:16:11;12.60;75.10
23556;DHT22;11956;53.184;8.578;2023-04-06T17:19:12;12.60;75.30
23556;DHT22;11956;53.184;8.578;2023-04-06T17:22:13;12.50;74.80
23556;DHT22;11956;53.184;8.578;2023-04-06T17:25:20;12.50;75.20
23556;DHT22;11956;53.184;8.578;2023-04-06T17:28:21;12.40;75.50
23556;DHT22;11956;53.184;8.578;2023-04-06T17:31:22;12.40;75.20
23556;DHT22;11956;53.184;8.578;2023-04-06T17:34:22;12.30;75.20
23556;DHT22;11956;53.184;8.578;2023-04-06T17:37:23;12.40;75.50
23556;DHT22;11956;53.184;8.578;2023-04-06T17:40:24;12.40;75.40
23556;DHT22;11956;53.184;8.578;2023-04-06T17:43:25;12.20;75.80
23556;DHT22;11956;53.184;8.578;2023-04-06T17:46:26;12.20;75.90
23556;DHT22;11956;53.184;8.578;2023-04-06T17:49:27;12.20;76.30
23556;DHT22;11956;53.184;8.578;2023-04-06T17:52:28;12.20;76.10
23556;DHT22;11956;53.184;8.578;2023-04-06T17:55:29;12.10;76.40
23556;DHT22;11956;53.184;8.578;2023-04-06T17:58:30;12.10;76.40
23556;DHT22;11956;53.184;8.578;2023-04-06T18:01:32;12.00;76.60
23556;DHT22;11956;53.184;8.578;2023-04-06T18:04:33;11.90;76.90
23556;DHT22;11956;53.184;8.578;2023-04-06T18:07:34;11.90;77.00
23556;DHT22;11956;53.184;8.578;2023-04-06T18:10:37;11.80;77.30
23556;DHT22;11956;53.184;8.578;2023-04-06T18:13:44;11.80;77.60
23556;DHT22;11956;53.184;8.578;2023-04-06T18:16:45;11.70;79.30
23556;DHT22;11956;53.184;8.578;2023-04-06T18:19:46;11.70;80.30
23556;DHT22;11956;53.184;8.578;2023-04-06T18:22:47;11.60;81.10
23556;DHT22;11956;53.184;8.578;2023-04-06T18:25:48;11.50;82.00
23556;DHT22;11956;53.184;8.578;2023-04-06T18:28:49;11.40;81.10
23556;DHT22;11956;53.184;8.578;2023-04-06T18:31:50;11.40;81.50
23556;DHT22;11956;53.184;8.578;2023-04-06T18:34:55;11.40;81.50
23556;DHT22;11956;53.184;8.578;2023-04-06T18:37:58;11.30;80.80
23556;DHT22;11956;53.184;8.578;2023-04-06T18:41:00;11.30;80.50
23556;DHT22;11956;53.184;8.578;2023-04-06T18:44:01;11.40;80.40
23556;DHT22;11956;53.184;8.578;2023-04-06T18:47:02;11.30;79.70
23556;DHT22;11956;53.184;8.578;2023-04-06T18:50:03;11.40;79.90
23556;DHT22;11956;53.184;8.578;2023-04-06T18:53:04;11.40;79.70
23556;DHT22;11956;53.184;8.578;2023-04-06T18:56:15;11.40;79.70
23556;DHT22;11956;53.184;8.578;2023-04-06T18:59:18;11.30;81.20
23556;DHT22;11956;53.184;8.578;2023-04-06T19:02:18;11.30;82.70
23556;DHT22;11956;53.184;8.578;2023-04-06T19:05:19;11.20;82.90
23556;DHT22;11956;53.184;8.578;2023-04-06T19:08:21;11.10;84.20
23556;DHT22;11956;53.184;8.578;2023-04-06T19:11:22;11.00;84.50
23556;DHT22;11956;53.184;8.578;2023-04-06T19:14:24;10.90;85.90
23556;DHT22;11956;53.184;8.578;2023-04-06T19:17:25;10.80;86.90
23556;DHT22;11956;53.184;8.578;2023-04-06T19:20:26;10.80;87.60
23556;DHT22;11956;53.184;8.578;2023-04-06T19:23:27;10.70;87.50
23556;DHT22;11956;53.184;8.578;2023-04-06T19:26:28;10.70;87.50
23556;DHT22;11956;53.184;8.578;2023-04-06T19:29:29;10.70;86.90
23556;DHT22;11956;53.184;8.578;2023-04-06T19:32:30;10.60;87.10
23556;DHT22;11956;53.184;8.578;2023-04-06T19:35:31;10.60;88.20